createdAt,value
2023-03-29T00:00:14.162Z,53.23
2023-03-29T00:03:03.873Z,53.38
2023-03-29T00:05:34.903Z,53.42
2023-03-29T00:08:03.963Z,53.40
2023-03-29T00:10:33.460Z,53.47
2023-03-29T00:13:02.170Z,53.57
2023-03-29T00:15:29.944Z,53.52
2023-03-29T00:17:58.085Z,53.75
2023-03-29T00:20:25.832Z,53.76
2023-03-29T00:22:53.350Z,53.84
2023-03-29T00:25:20.938Z,53.81
2023-03-29T00:27:48.535Z,53.89
2023-03-29T00:30:16.711Z,53.99
2023-03-29T00:32:44.587Z,54.07
2023-03-29T00:35:12.659Z,54.11
2023-03-29T00:37:41.131Z,54.15
2023-03-29T00:40:11.558Z,54.26
2023-03-29T00:42:39.274Z,54.34
2023-03-29T00:45:10.016Z,54.31
2023-03-29T00:47:47.201Z,54.47
2023-03-29T00:50:16.481Z,54.46
2023-03-29T00:52:59.668Z,54.48
2023-03-29T00:55:32.369Z,54.56
2023-03-29T00:58:01.122Z,54.64
2023-03-29T01:00:33.377Z,54.64
2023-03-29T01:03:05.121Z,54.71
2023-03-29T01:05:37.958Z,54.82
2023-03-29T01:08:11.357Z,54.83
2023-03-29T01:10:43.796Z,54.89
2023-03-29T01:13:17.605Z,55.02
2023-03-29T01:15:46.760Z,54.98
2023-03-29T01:18:14.509Z,55.04
2023-03-29T01:20:44.895Z,55.04
2023-03-29T01:23:45.698Z,55.07
2023-03-29T01:26:45.114Z,55.08
2023-03-29T01:29:20.882Z,55.17
2023-03-29T01:31:58.693Z,55.22
2023-03-29T01:34:42.157Z,55.27
2023-03-29T01:37:41.200Z,55.24
2023-03-29T01:40:10.662Z,55.27
2023-03-29T01:42:54.382Z,55.38
2023-03-29T01:45:44.494Z,55.45
2023-03-29T01:48:28.028Z,55.45
2023-03-29T01:51:07.247Z,55.49
2023-03-29T01:53:45.457Z,55.70
2023-03-29T01:56:23.541Z,55.58
2023-03-29T01:58:58.055Z,55.61
2023-03-29T02:01:30.041Z,55.69
2023-03-29T02:04:03.510Z,55.77
2023-03-29T02:06:34.056Z,55.81
2023-03-29T02:09:02.554Z,55.79
2023-03-29T02:11:30.188Z,55.75
2023-03-29T02:13:57.903Z,55.82
2023-03-29T02:16:25.445Z,55.89
2023-03-29T02:18:56.188Z,55.97
2023-03-29T02:21:32.534Z,55.97
2023-03-29T02:24:06.450Z,56.12
2023-03-29T02:26:34.088Z,56.13
2023-03-29T02:29:01.906Z,56.25
2023-03-29T02:31:55.217Z,56.25
2023-03-29T02:34:32.781Z,56.30
2023-03-29T02:37:06.590Z,56.29
2023-03-29T02:39:35.759Z,56.38
2023-03-29T02:42:05.177Z,56.36
2023-03-29T02:44:37.792Z,56.38
2023-03-29T02:47:15.958Z,56.44
2023-03-29T02:49:44.026Z,56.60
2023-03-29T02:52:16.778Z,56.59
2023-03-29T02:54:46.501Z,56.67
2023-03-29T02:57:14.196Z,56.56
2023-03-29T02:59:44.082Z,56.72
2023-03-29T03:02:12.258Z,56.67
2023-03-29T03:04:39.908Z,56.80
2023-03-29T03:07:07.486Z,56.78
2023-03-29T03:09:36.321Z,56.71
2023-03-29T03:12:04.034Z,56.81
2023-03-29T03:14:31.883Z,56.87
2023-03-29T03:17:00.657Z,56.98
2023-03-29T03:19:29.946Z,57.03
2023-03-29T03:21:57.575Z,56.95
2023-03-29T03:24:25.207Z,57.00
2023-03-29T03:26:53.184Z,57.12
2023-03-29T03:29:20.794Z,57.16
2023-03-29T03:31:48.916Z,57.10
2023-03-29T03:34:17.377Z,57.04
2023-03-29T03:36:47.153Z,57.10
2023-03-29T03:39:14.677Z,57.18
2023-03-29T03:41:42.258Z,57.19
2023-03-29T03:44:09.835Z,57.29
2023-03-29T03:46:38.097Z,57.24
2023-03-29T03:49:05.650Z,57.23
2023-03-29T03:51:33.230Z,57.20
2023-03-29T03:54:01.033Z,57.21
2023-03-29T03:56:29.817Z,57.31
2023-03-29T03:58:57.391Z,57.49
2023-03-29T04:01:27.122Z,57.45
2023-03-29T04:03:55.160Z,57.53
2023-03-29T04:06:22.728Z,57.61
2023-03-29T04:08:50.519Z,57.61
2023-03-29T04:11:18.058Z,57.71
2023-03-29T04:13:46.199Z,57.60
2023-03-29T04:16:13.770Z,57.71
2023-03-29T04:18:41.531Z,57.75
2023-03-29T04:21:09.154Z,57.82
2023-03-29T04:23:36.657Z,57.76
2023-03-29T04:26:04.566Z,57.81
2023-03-29T04:28:32.905Z,57.87
2023-03-29T04:31:01.747Z,57.84
2023-03-29T04:33:29.581Z,57.91
2023-03-29T04:35:57.498Z,57.92
2023-03-29T04:38:26.519Z,58.01
2023-03-29T04:40:55.604Z,57.84
2023-03-29T04:43:23.594Z,58.08
2023-03-29T04:45:51.358Z,57.97
2023-03-29T04:48:18.984Z,58.08
2023-03-29T04:50:47.431Z,58.08
2023-03-29T04:53:14.932Z,58.21
2023-03-29T04:55:42.626Z,58.21
2023-03-29T04:58:10.148Z,58.13
2023-03-29T05:00:37.899Z,58.25
2023-03-29T05:03:06.831Z,58.27
2023-03-29T05:05:35.359Z,58.42
2023-03-29T05:08:03.487Z,58.26
2023-03-29T05:10:31.253Z,58.30
2023-03-29T05:12:58.756Z,58.42
2023-03-29T05:15:26.515Z,58.30
2023-03-29T05:17:54.314Z,58.51
2023-03-29T05:20:22.185Z,58.48
2023-03-29T05:22:49.690Z,58.52
2023-03-29T05:25:18.793Z,58.51
2023-03-29T05:27:46.479Z,58.60
2023-03-29T05:30:18.115Z,58.74
2023-03-29T05:32:48.351Z,58.65
2023-03-29T05:35:16.226Z,58.72
2023-03-29T05:37:43.855Z,58.80
2023-03-29T05:40:14.631Z,58.76
2023-03-29T05:42:42.234Z,58.76
2023-03-29T05:45:11.429Z,58.69
2023-03-29T05:47:38.966Z,58.88
2023-03-29T05:50:09.744Z,58.90
2023-03-29T05:52:38.730Z,58.90
2023-03-29T05:55:07.356Z,59.07
2023-03-29T05:57:37.549Z,59.12
2023-03-29T06:00:25.098Z,59.08
2023-03-29T06:02:53.849Z,59.06
2023-03-29T06:05:21.527Z,58.97
2023-03-29T06:07:50.029Z,58.97
2023-03-29T06:10:19.673Z,58.96
2023-03-29T06:12:49.319Z,58.91
2023-03-29T06:15:17.657Z,58.93
2023-03-29T06:17:46.053Z,58.94
2023-03-29T06:20:14.769Z,58.90
2023-03-29T06:22:42.431Z,58.81
2023-03-29T06:25:15.177Z,58.91
2023-03-29T06:27:42.924Z,58.95
2023-03-29T06:30:12.257Z,58.79
2023-03-29T06:32:40.183Z,58.83
2023-03-29T06:35:09.117Z,58.82
2023-03-29T06:37:40.271Z,58.66
2023-03-29T06:40:09.989Z,58.90
2023-03-29T06:42:37.746Z,58.87
2023-03-29T06:45:06.411Z,58.74
2023-03-29T06:47:34.114Z,58.76
2023-03-29T06:50:01.768Z,58.64
2023-03-29T06:52:29.405Z,58.57
2023-03-29T06:54:57.343Z,58.58
2023-03-29T06:57:25.374Z,58.46
2023-03-29T06:59:54.116Z,58.36
2023-03-29T07:02:22.624Z,58.62
2023-03-29T07:04:50.454Z,58.64
2023-03-29T07:07:21.989Z,58.60
2023-03-29T07:09:53.950Z,58.53
2023-03-29T07:12:22.986Z,58.38
2023-03-29T07:14:50.625Z,58.23
2023-03-29T07:17:23.010Z,58.28
2023-03-29T07:19:51.431Z,58.30
2023-03-29T07:22:19.690Z,58.28
2023-03-29T07:24:49.327Z,58.26
2023-03-29T07:27:18.085Z,58.26
2023-03-29T07:29:46.621Z,58.09
2023-03-29T07:32:14.316Z,57.98
2023-03-29T07:34:42.414Z,58.17
2023-03-29T07:37:13.292Z,58.06
2023-03-29T07:39:44.794Z,57.86
2023-03-29T07:42:12.708Z,57.95
2023-03-29T07:44:42.440Z,58.07
2023-03-29T07:47:13.782Z,57.97
2023-03-29T07:49:42.428Z,58.00
2023-03-29T07:52:10.019Z,57.81
2023-03-29T07:54:38.537Z,57.63
2023-03-29T07:57:06.778Z,57.80
2023-03-29T07:59:34.277Z,57.62
2023-03-29T08:02:01.777Z,57.56
2023-03-29T08:04:29.627Z,57.65
2023-03-29T08:06:57.493Z,57.52
2023-03-29T08:09:25.855Z,57.60
2023-03-29T08:11:53.493Z,57.61
2023-03-29T08:14:23.715Z,57.62
2023-03-29T08:16:52.581Z,57.55
2023-03-29T08:19:20.338Z,57.44
2023-03-29T08:21:48.092Z,57.09
2023-03-29T08:24:15.980Z,57.05
2023-03-29T08:26:43.533Z,56.93
2023-03-29T08:29:11.444Z,56.64
2023-03-29T08:31:38.972Z,56.92
2023-03-29T08:34:06.988Z,56.75
2023-03-29T08:36:34.794Z,56.37
2023-03-29T08:39:03.354Z,56.50
2023-03-29T08:42:05.630Z,56.30
2023-03-29T08:45:03.711Z,56.06
2023-03-29T08:48:13.577Z,55.74
2023-03-29T08:50:50.339Z,55.85
2023-03-29T08:53:45.184Z,55.01
2023-03-29T08:56:18.554Z,55.18
2023-03-29T08:58:48.110Z,55.51
2023-03-29T09:01:16.461Z,55.57
2023-03-29T09:03:50.528Z,55.50
2023-03-29T09:06:24.264Z,54.96
2023-03-29T09:08:53.481Z,54.78
2023-03-29T09:11:30.197Z,54.64
2023-03-29T09:14:25.210Z,54.41
2023-03-29T09:17:10.022Z,54.63
2023-03-29T09:20:12.373Z,54.52
2023-03-29T09:23:13.922Z,54.06
2023-03-29T09:25:54.051Z,53.83
2023-03-29T09:28:31.214Z,53.71
2023-03-29T09:31:14.577Z,53.61
2023-03-29T09:33:49.117Z,53.88
2023-03-29T09:36:24.761Z,53.23
2023-03-29T09:38:54.455Z,53.00
2023-03-29T09:41:36.462Z,53.14
2023-03-29T09:46:55.896Z,52.44
2023-03-29T09:49:29.084Z,52.65
2023-03-29T09:52:04.829Z,52.69
2023-03-29T09:54:32.762Z,52.38
2023-03-29T09:57:01.109Z,51.49
2023-03-29T09:59:29.097Z,51.33
2023-03-29T10:02:07.769Z,51.85
2023-03-29T10:04:36.894Z,52.28
2023-03-29T10:07:07.920Z,52.12
2023-03-29T10:09:35.871Z,52.07
2023-03-29T10:12:08.049Z,51.85
2023-03-29T10:14:53.991Z,51.51
2023-03-29T10:17:26.102Z,51.38
2023-03-29T10:20:03.954Z,51.07
2023-03-29T10:22:38.384Z,50.95
2023-03-29T10:25:15.890Z,51.12
2023-03-29T10:27:47.970Z,50.95
2023-03-29T10:30:24.266Z,50.84
2023-03-29T10:32:56.828Z,50.27
2023-03-29T10:35:39.953Z,50.15
2023-03-29T10:38:14.945Z,50.19
2023-03-29T10:40:51.810Z,48.88
2023-03-29T10:43:29.777Z,49.87
2023-03-29T10:46:19.728Z,50.05
2023-03-29T10:48:50.531Z,49.98
2023-03-29T10:51:19.893Z,49.95
2023-03-29T10:53:47.586Z,49.64
2023-03-29T10:56:47.042Z,49.87
2023-03-29T10:59:32.680Z,49.50
2023-03-29T11:02:24.587Z,48.81
2023-03-29T11:05:24.945Z,49.22
2023-03-29T11:08:08.694Z,48.83
2023-03-29T11:10:46.064Z,48.84
2023-03-29T11:13:46.439Z,48.41
2023-03-29T11:16:39.425Z,47.97
2023-03-29T11:19:38.858Z,47.55
2023-03-29T11:22:26.621Z,48.12
2023-03-29T11:25:12.396Z,48.64
2023-03-29T11:28:05.104Z,48.59
2023-03-29T11:30:48.776Z,47.70
2023-03-29T11:33:19.408Z,47.56
2023-03-29T11:36:25.875Z,47.97
2023-03-29T11:38:59.346Z,47.37
2023-03-29T11:41:32.071Z,47.43
2023-03-29T11:44:09.258Z,46.59
2023-03-29T11:46:46.873Z,46.72
2023-03-29T11:49:41.962Z,46.57
2023-03-29T11:52:33.681Z,46.38
2023-03-29T11:55:19.195Z,46.29
2023-03-29T11:58:04.786Z,46.12
2023-03-29T12:00:41.073Z,46.27
2023-03-29T12:03:32.448Z,46.54
2023-03-29T12:06:25.462Z,46.64
2023-03-29T12:09:02.686Z,46.25
2023-03-29T12:11:49.070Z,45.28
2023-03-29T12:14:39.261Z,45.51
2023-03-29T12:17:15.091Z,44.92
2023-03-29T12:19:54.540Z,45.15
2023-03-29T12:22:22.612Z,45.39
2023-03-29T12:24:54.717Z,45.04
2023-03-29T12:27:27.089Z,44.79
2023-03-29T12:30:27.185Z,45.22
2023-03-29T12:33:03.975Z,45.67
2023-03-29T12:35:40.606Z,46.10
2023-03-29T12:38:31.276Z,45.14
2023-03-29T12:41:25.410Z,45.00
2023-03-29T12:43:53.626Z,44.63
2023-03-29T12:46:27.054Z,44.34
2023-03-29T12:48:58.173Z,44.60
2023-03-29T12:51:35.997Z,45.20
2023-03-29T12:54:13.918Z,45.24
2023-03-29T12:56:58.610Z,44.92
2023-03-29T12:59:47.830Z,45.01
2023-03-29T13:02:15.496Z,45.35
2023-03-29T13:04:43.646Z,44.83
2023-03-29T13:07:28.464Z,44.02
2023-03-29T13:09:57.958Z,44.06
2023-03-29T13:12:45.789Z,44.38
2023-03-29T13:15:19.472Z,43.90
2023-03-29T13:18:16.134Z,43.84
2023-03-29T13:20:46.760Z,43.64
2023-03-29T13:23:27.388Z,43.87
2023-03-29T13:26:27.284Z,44.25
2023-03-29T13:29:20.013Z,43.62
2023-03-29T13:32:01.741Z,43.26
2023-03-29T13:34:53.675Z,43.28
2023-03-29T13:37:24.567Z,42.55
2023-03-29T13:39:54.965Z,42.29
2023-03-29T13:42:40.992Z,42.49
2023-03-29T13:45:30.010Z,42.44
2023-03-29T13:48:20.566Z,42.92
2023-03-29T13:51:18.693Z,43.31
2023-03-29T13:53:53.129Z,43.10
2023-03-29T13:56:30.934Z,43.11
2023-03-29T13:59:18.831Z,43.48
2023-03-29T14:01:53.468Z,43.02
2023-03-29T14:04:25.761Z,42.95
2023-03-29T14:06:57.467Z,43.35
2023-03-29T14:09:30.321Z,43.48
2023-03-29T14:12:01.713Z,43.46
2023-03-29T14:14:32.754Z,43.52
2023-03-29T14:17:01.514Z,43.51
2023-03-29T14:19:39.036Z,43.53
2023-03-29T14:22:18.838Z,43.59
2023-03-29T14:24:58.814Z,43.41
2023-03-29T14:27:32.267Z,43.36
2023-03-29T14:30:00.708Z,43.55
2023-03-29T14:32:32.251Z,43.25
2023-03-29T14:35:01.051Z,43.10
2023-03-29T14:37:29.774Z,42.79
2023-03-29T14:39:59.500Z,43.20
2023-03-29T14:42:29.217Z,42.86
2023-03-29T14:45:04.507Z,42.64
2023-03-29T14:47:34.686Z,42.77
2023-03-29T14:50:04.708Z,42.36
2023-03-29T14:52:33.509Z,42.21
2023-03-29T14:55:04.022Z,42.42
2023-03-29T14:57:38.259Z,42.38
2023-03-29T15:00:22.715Z,42.62
2023-03-29T15:03:01.742Z,42.71
2023-03-29T15:05:38.156Z,42.88
2023-03-29T15:08:11.868Z,43.19
2023-03-29T15:10:42.949Z,43.17
2023-03-29T15:13:20.021Z,42.94
2023-03-29T15:15:52.431Z,43.10
2023-03-29T15:18:25.242Z,43.17
2023-03-29T15:20:53.010Z,42.83
2023-03-29T15:23:23.791Z,42.07
2023-03-29T15:25:58.792Z,41.78
2023-03-29T15:28:31.173Z,41.82
2023-03-29T15:31:07.962Z,41.51
2023-03-29T15:33:39.371Z,41.24
2023-03-29T15:36:20.276Z,41.09
2023-03-29T15:38:49.729Z,41.32
2023-03-29T15:41:17.272Z,41.49
2023-03-29T15:43:44.781Z,41.66
2023-03-29T15:46:13.876Z,41.67
2023-03-29T15:48:42.173Z,41.71
2023-03-29T15:51:13.396Z,41.75
2023-03-29T15:53:41.441Z,41.93
2023-03-29T15:56:13.255Z,42.17
2023-03-29T15:58:41.055Z,42.27
2023-03-29T16:01:23.665Z,42.35
2023-03-29T16:03:51.884Z,42.44
2023-03-29T16:06:22.018Z,42.48
2023-03-29T16:08:49.541Z,42.66
2023-03-29T16:11:17.372Z,42.62
2023-03-29T16:13:45.123Z,42.51
2023-03-29T16:16:12.770Z,42.59
2023-03-29T16:18:41.215Z,42.67
2023-03-29T16:21:14.322Z,42.66
2023-03-29T16:23:42.932Z,42.88
2023-03-29T16:26:12.733Z,42.81
2023-03-29T16:28:41.241Z,42.72
2023-03-29T16:31:13.273Z,42.77
2023-03-29T16:33:41.325Z,42.80
2023-03-29T16:36:10.009Z,42.62
2023-03-29T16:38:38.342Z,42.86
2023-03-29T16:41:07.110Z,42.67
2023-03-29T16:43:35.298Z,42.79
2023-03-29T16:46:03.875Z,42.68
2023-03-29T16:48:32.002Z,42.66
2023-03-29T16:50:59.717Z,42.64
2023-03-29T16:53:28.398Z,42.68
2023-03-29T16:55:57.330Z,42.72
2023-03-29T16:58:24.894Z,42.65
2023-03-29T17:00:53.551Z,42.77
2023-03-29T17:03:21.173Z,42.84
2023-03-29T17:05:50.610Z,42.90
2023-03-29T17:08:18.805Z,42.86
2023-03-29T17:10:47.254Z,42.85
2023-03-29T17:13:14.776Z,42.81
2023-03-29T17:15:42.447Z,42.89
2023-03-29T17:18:10.091Z,42.79
2023-03-29T17:20:40.875Z,42.95
2023-03-29T17:23:09.731Z,42.97
2023-03-29T17:25:37.535Z,42.98
2023-03-29T17:28:05.018Z,42.97
2023-03-29T17:30:35.022Z,43.01
2023-03-29T17:33:03.961Z,43.12
2023-03-29T17:35:32.057Z,43.12
2023-03-29T17:38:00.455Z,43.16
2023-03-29T17:40:28.149Z,43.25
2023-03-29T17:42:56.136Z,43.34
2023-03-29T17:45:24.153Z,43.32
2023-03-29T17:47:51.840Z,43.28
2023-03-29T17:50:19.623Z,43.16
2023-03-29T17:52:47.749Z,43.35
2023-03-29T17:55:15.646Z,43.17
2023-03-29T17:57:43.818Z,43.43
2023-03-29T18:00:13.892Z,43.31
2023-03-29T18:02:41.933Z,43.40
2023-03-29T18:05:12.256Z,43.38
2023-03-29T18:07:40.553Z,43.26
2023-03-29T18:10:08.465Z,43.25
2023-03-29T18:12:36.939Z,43.43
2023-03-29T18:15:08.972Z,43.54
2023-03-29T18:17:37.156Z,43.57
2023-03-29T18:20:11.090Z,43.53
2023-03-29T18:22:42.074Z,43.57
2023-03-29T18:25:11.257Z,43.49
2023-03-29T18:27:39.720Z,43.68
2023-03-29T18:30:08.766Z,43.61
2023-03-29T18:32:36.898Z,43.72
2023-03-29T18:35:07.257Z,43.70
2023-03-29T18:37:34.827Z,43.95
2023-03-29T18:40:02.414Z,43.87
2023-03-29T18:42:30.914Z,43.93
2023-03-29T18:44:58.720Z,44.03
2023-03-29T18:47:27.069Z,43.96
2023-03-29T18:49:54.755Z,43.95
2023-03-29T18:52:23.404Z,43.88
2023-03-29T18:54:51.396Z,43.98
2023-03-29T18:57:19.457Z,44.00
2023-03-29T18:59:47.362Z,44.09
2023-03-29T19:02:15.611Z,44.19
2023-03-29T19:04:43.402Z,44.21
2023-03-29T19:07:10.991Z,44.14
2023-03-29T19:09:38.849Z,44.31
2023-03-29T19:12:06.650Z,44.31
2023-03-29T19:14:34.202Z,44.32
2023-03-29T19:17:01.754Z,44.21
2023-03-29T19:19:29.490Z,44.31
2023-03-29T19:22:00.277Z,44.24
2023-03-29T19:24:28.374Z,44.30
2023-03-29T19:26:56.473Z,44.25
2023-03-29T19:29:24.469Z,44.27
2023-03-29T19:31:55.014Z,44.39
2023-03-29T19:34:24.308Z,44.42
2023-03-29T19:36:53.785Z,44.43
2023-03-29T19:39:22.296Z,44.39
2023-03-29T19:41:49.893Z,44.54
2023-03-29T19:44:17.440Z,44.52
2023-03-29T19:46:44.960Z,44.72
2023-03-29T19:49:13.665Z,44.79
2023-03-29T19:51:43.070Z,44.71
2023-03-29T19:54:13.193Z,44.76
2023-03-29T19:56:42.503Z,44.73
2023-03-29T19:59:11.010Z,44.88
2023-03-29T20:01:42.667Z,44.89
2023-03-29T20:04:11.803Z,44.94
2023-03-29T20:06:40.224Z,45.00
2023-03-29T20:09:08.767Z,45.16
2023-03-29T20:11:36.422Z,45.04
2023-03-29T20:14:04.912Z,45.12
2023-03-29T20:16:35.871Z,45.09
2023-03-29T20:19:08.153Z,45.15
2023-03-29T20:21:38.710Z,45.37
2023-03-29T20:24:08.545Z,45.30
2023-03-29T20:26:37.019Z,45.22
2023-03-29T20:29:04.619Z,45.36
2023-03-29T20:31:32.323Z,45.34
2023-03-29T20:34:00.869Z,45.24
2023-03-29T20:36:30.349Z,45.37
2023-03-29T20:38:59.228Z,45.41
2023-03-29T20:41:27.081Z,45.31
2023-03-29T20:43:58.430Z,45.48
2023-03-29T20:46:33.372Z,45.45
2023-03-29T20:49:04.371Z,45.53
2023-03-29T20:51:32.218Z,45.54
2023-03-29T20:54:04.834Z,45.51
2023-03-29T20:56:38.541Z,45.66
2023-03-29T20:59:10.397Z,45.61
2023-03-29T21:01:41.294Z,45.62
2023-03-29T21:04:10.546Z,45.65
2023-03-29T21:06:41.367Z,45.71
2023-03-29T21:09:08.883Z,45.85
2023-03-29T21:11:36.439Z,45.75
2023-03-29T21:14:04.410Z,45.83
2023-03-29T21:16:31.994Z,45.86
2023-03-29T21:18:59.691Z,45.88
2023-03-29T21:21:29.433Z,45.88
2023-03-29T21:23:57.040Z,45.93
2023-03-29T21:26:24.584Z,46.01
2023-03-29T21:28:52.141Z,46.01
2023-03-29T21:31:19.782Z,46.05
2023-03-29T21:33:47.381Z,46.11
2023-03-29T21:36:15.266Z,45.90
2023-03-29T21:38:42.821Z,46.02
2023-03-29T21:41:12.183Z,46.17
2023-03-29T21:43:40.286Z,46.14
2023-03-29T21:46:07.994Z,46.14
2023-03-29T21:48:36.020Z,46.26
2023-03-29T21:51:04.146Z,46.33
2023-03-29T21:53:31.885Z,46.08
2023-03-29T21:55:59.677Z,46.31
2023-03-29T21:58:27.293Z,46.43
2023-03-29T22:00:56.888Z,46.33
2023-03-29T22:03:25.497Z,46.39
2023-03-29T22:06:02.585Z,46.43
2023-03-29T22:08:30.788Z,46.49
2023-03-29T22:11:08.282Z,46.57
2023-03-29T22:13:36.641Z,46.57
2023-03-29T22:16:05.054Z,46.59
2023-03-29T22:18:43.754Z,46.41
2023-03-29T22:21:15.207Z,46.49
2023-03-29T22:23:45.801Z,46.78
2023-03-29T22:26:15.647Z,46.54
2023-03-29T22:28:43.468Z,46.67
2023-03-29T22:31:14.453Z,46.75
2023-03-29T22:33:42.501Z,46.77
2023-03-29T22:36:17.314Z,46.93
2023-03-29T22:38:46.731Z,46.88
2023-03-29T22:41:15.777Z,46.89
2023-03-29T22:43:43.694Z,46.85
2023-03-29T22:46:13.834Z,46.97
2023-03-29T22:48:41.639Z,46.96
2023-03-29T22:51:09.130Z,46.96
2023-03-29T22:53:36.934Z,46.97
2023-03-29T22:56:06.928Z,47.14
2023-03-29T22:58:36.208Z,47.10
2023-03-29T23:01:05.705Z,47.11
2023-03-29T23:03:34.209Z,47.27
2023-03-29T23:06:04.608Z,47.30
2023-03-29T23:08:34.211Z,47.37
2023-03-29T23:11:02.448Z,47.50
2023-03-29T23:13:30.662Z,47.57
2023-03-29T23:16:00.452Z,47.55
2023-03-29T23:18:30.580Z,47.51
2023-03-29T23:20:59.079Z,47.59
2023-03-29T23:23:28.425Z,47.62
2023-03-29T23:25:57.793Z,47.73
2023-03-29T23:28:30.109Z,47.67
2023-03-29T23:31:00.518Z,47.66
2023-03-29T23:33:33.107Z,47.87
2023-03-29T23:36:04.303Z,47.96
2023-03-29T23:38:34.136Z,47.82
2023-03-29T23:41:06.802Z,47.94
2023-03-29T23:43:40.247Z,48.09
2023-03-29T23:46:13.266Z,48.12
2023-03-29T23:48:45.690Z,48.13
2023-03-29T23:51:13.560Z,47.99
2023-03-29T23:53:41.445Z,48.13
2023-03-29T23:56:09.468Z,48.11
2023-03-29T23:58:38.004Z,48.18
